Time;durP1;ratioP1;P1;durP2;ratioP2;P2;SDS_P1;SDS_P2;PMS_P1;PMS_P2;Temp;Humidity;BMP_temperature;BMP_pressure;BME280_temperature;BME280_humidity;BME280_pressure;Samples;Min_cycle;Max_cycle;Signal;HPM_P1;HPM_P2
2022/08/12 00:44:38;;;;;;;;;;;20.10;99.90;;;;;;5049911;28;20544;-69
2022/08/12 00:47:04;;;;;;;5.03;4.50;;;20.10;99.90;;;;;;5032280;28;19917;-69
2022/08/12 00:49:30;;;;;;;6.82;4.30;;;20.00;99.90;;;;;;5049700;28;20112;-69
2022/08/12 00:52:05;;;;;;;7.30;4.35;;;20.00;99.90;;;;;;5049871;28;20466;-69
2022/08/12 00:54:45;;;;;;;5.55;4.50;;;20.10;99.90;;;;;;5049414;28;20039;-69
2022/08/12 00:57:14;;;;;;;8.60;4.22;;;20.00;99.90;;;;;;5049851;28;20045;-69
2022/08/12 00:59:46;;;;;;;8.20;4.18;;;19.90;99.90;;;;;;5049712;28;20508;-69
2022/08/12 01:02:13;;;;;;;;;;;19.90;99.90;;;;;;5050281;28;20124;-69
2022/08/12 01:12:57;;;;;;;5.25;4.25;;;19.70;99.90;;;;;;5053681;28;20045;-69
2022/08/12 01:15:23;;;;;;;7.40;4.47;;;19.70;99.90;;;;;;5053461;28;20122;-69
2022/08/12 01:17:49;;;;;;;10.98;4.78;;;19.70;99.90;;;;;;5053674;28;20089;-69
2022/08/12 01:20:35;;;;;;;5.85;4.50;;;19.60;99.90;;;;;;5053505;28;20041;-69
2022/08/12 01:23:23;;;;;;;8.57;4.07;;;19.60;99.90;;;;;;5053444;28;20033;-69
2022/08/12 01:25:52;;;;;;;5.50;4.20;;;19.70;99.90;;;;;;5053475;28;20323;-69
2022/08/12 01:28:19;;;;;;;8.32;4.65;;;19.80;99.90;;;;;;5053546;28;20355;-69
2022/08/12 01:30:48;;;;;;;5.90;4.47;;;19.80;99.90;;;;;;5053443;28;20116;-69
2022/08/12 01:33:17;;;;;;;6.93;3.90;;;19.80;99.90;;;;;;5053066;28;20037;-69
2022/08/12 01:35:48;;;;;;;5.90;3.92;;;19.80;99.90;;;;;;5053225;28;20052;-69
2022/08/12 01:38:18;;;;;;;8.80;5.13;;;19.80;99.90;;;;;;5051943;28;20351;-69
2022/08/12 01:40:46;;;;;;;7.97;4.80;;;19.70;99.90;;;;;;5053120;28;20040;-69
2022/08/12 01:43:16;;;;;;;5.32;4.13;;;19.70;99.90;;;;;;5053402;28;20588;-69
2022/08/12 01:45:58;;;;;;;7.55;4.63;;;19.70;99.90;;;;;;5067100;28;20803;-69
2022/08/12 01:48:27;;;;;;;11.05;4.78;;;19.70;99.90;;;;;;5057294;28;20059;-69
2022/08/12 01:51:17;;;;;;;5.97;4.63;;;19.50;99.90;;;;;;5053039;28;20128;-69
2022/08/12 01:54:06;;;;;;;5.63;4.20;;;19.60;99.90;;;;;;5052716;28;20401;-69
2022/08/12 01:56:50;;;;;;;4.57;3.95;;;19.50;99.90;;;;;;5052954;28;20041;-69
2022/08/12 02:02:18;;;;;;;8.50;4.55;;;19.50;99.90;;;;;;5052658;28;20045;-69
2022/08/12 02:11:16;;;;;;;8.68;4.28;;;19.50;99.90;;;;;;5052601;28;20072;-69
2022/08/12 02:14:12;;;;;;;11.07;5.13;;;19.50;99.90;;;;;;5051831;28;20099;-69
2022/08/12 02:17:04;;;;;;;10.48;4.38;;;19.40;99.90;;;;;;5051980;28;20048;-69
2022/08/12 02:20:00;;;;;;;9.23;5.05;;;19.40;99.90;;;;;;5052471;28;20359;-69
2022/08/12 02:22:35;;;;;;;5.03;4.13;;;19.30;99.90;;;;;;5052123;28;20045;-69
2022/08/12 02:25:12;;;;;;;5.80;4.80;;;19.30;99.90;;;;;;5052159;28;20045;-69
2022/08/12 02:27:41;;;;;;;8.48;4.82;;;19.30;99.90;;;;;;5052252;28;20486;-69
2022/08/12 02:30:12;;;;;;;6.43;4.43;;;19.30;99.90;;;;;;5052214;28;20099;-69
2022/08/12 02:32:41;;;;;;;8.88;5.97;;;19.30;99.90;;;;;;5051919;28;20048;-69
2022/08/12 02:35:09;;;;;;;8.52;4.70;;;19.10;99.90;;;;;;5051907;28;20135;-70
2022/08/12 02:37:38;;;;;;;12.43;5.07;;;19.00;99.90;;;;;;5052082;28;20485;-69
2022/08/12 02:40:06;;;;;;;8.38;4.65;;;19.00;99.90;;;;;;5052067;28;20044;-69
2022/08/12 02:42:33;;;;;;;10.32;5.07;;;18.90;99.90;;;;;;5051621;28;20507;-69
2022/08/12 02:45:05;;;;;;;12.02;5.57;;;18.80;99.90;;;;;;5051911;28;20134;-70
2022/08/12 02:47:39;;;;;;;7.97;5.20;;;19.00;99.90;;;;;;5052011;28;20127;-70
2022/08/12 02:50:06;;;;;;;6.68;4.88;;;18.90;99.90;;;;;;5051785;28;20405;-69
2022/08/12 02:52:34;;;;;;;7.15;4.88;;;19.00;99.90;;;;;;5056222;28;20782;-70
2022/08/12 02:55:17;;;;;;;6.97;4.95;;;18.90;99.90;;;;;;5061615;28;20041;-69
2022/08/12 02:57:44;;;;;;;6.47;4.68;;;19.00;99.90;;;;;;5052646;28;20041;-69
2022/08/12 03:00:12;;;;;;;8.75;5.22;;;18.90;99.90;;;;;;5051489;28;20037;-70
2022/08/12 03:02:42;;;;;;;8.13;5.55;;;18.90;99.90;;;;;;5051289;28;20076;-69
2022/08/12 03:05:10;;;;;;;7.88;5.10;;;19.00;99.90;;;;;;5051647;28;20083;-69
2022/08/12 03:07:44;;;;;;;10.73;4.95;;;18.90;99.90;;;;;;5051599;28;20041;-70
2022/08/12 03:10:12;;;;;;;8.40;4.80;;;18.90;99.90;;;;;;5051307;28;20090;-69
2022/08/12 03:12:45;;;;;;;8.70;5.75;;;18.80;99.90;;;;;;5050853;28;20045;-69
2022/08/12 03:15:16;;;;;;;9.55;5.43;;;18.80;99.90;;;;;;5050688;28;20401;-69
2022/08/12 03:18:06;;;;;;;7.45;5.68;;;18.80;99.90;;;;;;5051121;28;20683;-69
2022/08/12 03:20:36;;;;;;;12.43;6.28;;;18.80;99.90;;;;;;5033106;28;20048;-69
2022/08/12 03:23:04;;;;;;;6.95;5.28;;;18.70;99.90;;;;;;5050784;28;20041;-69
2022/08/12 03:25:36;;;;;;;8.15;5.53;;;18.60;99.90;;;;;;5050930;28;20108;-69
2022/08/12 03:28:03;;;;;;;11.68;5.70;;;18.60;99.90;;;;;;5050918;28;20049;-69
2022/08/12 03:30:31;;;;;;;7.47;5.47;;;18.60;99.90;;;;;;5049462;28;20043;-69
2022/08/12 03:33:00;;;;;;;7.82;5.47;;;18.60;99.90;;;;;;5048941;28;20056;-69
2022/08/12 03:35:29;;;;;;;7.13;5.55;;;18.60;99.90;;;;;;5050524;28;20091;-69
2022/08/12 03:38:07;;;;;;;7.85;5.15;;;18.50;99.90;;;;;;5050594;28;20045;-69
2022/08/12 04:00:23;;;;;;;11.20;6.00;;;18.00;99.90;;;;;;5050576;28;20602;-70
2022/08/12 04:03:01;;;;;;;13.05;6.28;;;18.10;99.90;;;;;;5063408;28;20166;-69
2022/08/12 04:05:31;;;;;;;11.05;6.43;;;18.00;99.90;;;;;;5053116;28;20085;-69
2022/08/12 04:07:58;;;;;;;11.60;6.45;;;18.00;99.90;;;;;;5047431;28;20106;-69
2022/08/12 04:13:14;;;;;;;9.93;6.70;;;18.10;99.90;;;;;;5047328;28;20085;-69
2022/08/12 04:13:18;;;;;;;9.15;6.18;;;18.00;99.90;;;;;;5049017;28;20055;-69
2022/08/12 04:15:45;;;;;;;8.68;6.20;;;18.00;99.90;;;;;;5049060;28;20051;-69
2022/08/12 04:18:12;;;;;;;10.02;6.97;;;18.00;99.90;;;;;;5049590;28;20567;-69
2022/08/12 04:20:41;;;;;;;11.52;6.65;;;17.90;99.90;;;;;;5048843;28;20085;-69
2022/08/12 04:23:08;;;;;;;11.85;6.22;;;17.80;99.90;;;;;;5049802;28;20044;-69
2022/08/12 04:25:38;;;;;;;11.75;6.88;;;17.80;99.90;;;;;;5050039;28;20067;-69
2022/08/12 04:28:06;;;;;;;11.70;6.72;;;17.70;99.90;;;;;;5050036;28;20134;-69
2022/08/12 04:30:32;;;;;;;9.35;6.45;;;17.70;99.90;;;;;;5049974;28;20045;-69
2022/08/12 04:32:58;;;;;;;12.27;6.80;;;17.80;99.90;;;;;;5048116;28;20045;-69
2022/08/12 04:35:24;;;;;;;9.25;6.22;;;17.70;99.90;;;;;;5049928;28;20038;-69
2022/08/12 04:37:54;;;;;;;11.30;6.45;;;17.70;99.90;;;;;;5049786;28;20053;-69
2022/08/12 04:40:29;;;;;;;9.98;7.13;;;17.70;99.90;;;;;;5050065;28;20086;-69
2022/08/12 04:42:55;;;;;;;8.98;6.18;;;17.70;99.90;;;;;;5050167;28;20033;-69
2022/08/12 04:45:20;;;;;;;11.05;6.65;;;17.70;99.90;;;;;;5056257;28;20044;-69
2022/08/12 04:47:47;;;;;;;9.63;6.32;;;17.70;99.90;;;;;;5056345;28;20076;-69
2022/08/12 04:50:17;;;;;;;11.45;6.63;;;17.70;99.90;;;;;;5056424;28;20086;-69
2022/08/12 04:52:43;;;;;;;12.77;6.05;;;17.70;99.90;;;;;;5056263;28;20033;-69
2022/08/12 04:55:11;;;;;;;8.00;6.35;;;17.80;99.90;;;;;;5056303;28;20424;-69
2022/08/12 04:57:37;;;;;;;9.55;6.72;;;17.80;99.90;;;;;;5056278;28;20049;-69
2022/08/12 05:00:12;;;;;;;10.93;6.40;;;17.80;99.90;;;;;;5056341;28;20455;-69
2022/08/12 05:02:38;;;;;;;12.57;6.40;;;17.80;99.90;;;;;;5056535;28;20044;-69
2022/08/12 05:05:07;;;;;;;10.38;6.70;;;17.80;99.90;;;;;;5056376;28;20044;-69
2022/08/12 05:07:33;;;;;;;12.52;6.88;;;17.90;99.90;;;;;;5056444;28;20044;-69
2022/08/12 05:09:58;;;;;;;8.57;6.55;;;17.90;99.90;;;;;;5056288;28;20048;-69
2022/08/12 05:12:27;;;;;;;12.75;6.57;;;18.10;99.90;;;;;;5058734;28;20142;-69
2022/08/12 05:14:52;;;;;;;11.52;6.82;;;18.10;99.90;;;;;;5067523;28;20064;-70
2022/08/12 05:17:18;;;;;;;11.70;6.32;;;18.20;99.90;;;;;;5068245;28;20056;-72
2022/08/12 05:19:43;;;;;;;16.52;6.70;;;18.20;99.90;;;;;;5084019;28;20033;-70
2022/08/12 05:22:09;;;;;;;10.88;6.60;;;18.30;99.90;;;;;;5076487;28;20092;-70
2022/08/12 05:24:35;;;;;;;11.43;6.80;;;18.30;99.90;;;;;;5065703;28;20055;-70
2022/08/12 05:27:01;;;;;;;12.32;6.55;;;18.50;99.90;;;;;;5064857;28;20033;-70
2022/08/12 05:29:28;;;;;;;9.93;6.68;;;18.50;99.90;;;;;;5064118;28;20497;-70
2022/08/12 05:31:55;;;;;;;7.90;6.55;;;18.60;99.90;;;;;;5065717;28;20037;-70
2022/08/12 05:34:22;;;;;;;11.50;6.93;;;18.70;99.90;;;;;;5065795;28;20152;-70
2022/08/12 05:36:47;;;;;;;9.65;5.90;;;18.80;99.90;;;;;;5066139;28;20048;-70
2022/08/12 05:39:13;;;;;;;10.70;6.43;;;18.80;99.90;;;;;;5066377;28;20105;-70
2022/08/12 05:41:39;;;;;;;10.98;6.32;;;18.90;99.90;;;;;;5066288;28;20108;-70
2022/08/12 05:44:06;;;;;;;8.93;6.40;;;18.90;99.90;;;;;;5064934;28;20041;-70
2022/08/12 05:46:33;;;;;;;11.85;5.82;;;18.80;99.90;;;;;;5066674;28;20045;-70
2022/08/12 05:48:59;;;;;;;11.57;6.07;;;18.90;99.90;;;;;;5065333;28;20429;-70
2022/08/12 05:51:27;;;;;;;9.35;6.75;;;18.90;99.90;;;;;;5065781;28;20041;-70
2022/08/12 05:53:54;;;;;;;10.25;6.30;;;19.00;99.90;;;;;;5064771;28;20440;-69
2022/08/12 05:56:32;;;;;;;9.60;6.47;;;19.00;99.90;;;;;;5058778;28;20116;-70
2022/08/12 05:59:02;;;;;;;8.88;5.80;;;19.10;99.90;;;;;;5059624;28;20541;-69
2022/08/12 06:01:28;;;;;;;7.53;6.65;;;19.20;99.90;;;;;;5059170;28;20048;-69
2022/08/12 06:03:55;;;;;;;7.35;5.72;;;19.30;99.90;;;;;;5058654;28;20361;-69
2022/08/12 06:06:22;;;;;;;12.93;6.07;;;19.40;99.90;;;;;;5060380;28;20036;-69
2022/08/12 06:08:52;;;;;;;12.93;6.40;;;19.50;99.90;;;;;;5059413;28;20052;-69
2022/08/12 06:11:19;;;;;;;7.50;5.78;;;19.40;99.90;;;;;;5056842;28;20513;-67
2022/08/12 06:13:46;;;;;;;8.95;5.68;;;19.60;99.90;;;;;;5052252;28;20047;-68
2022/08/12 06:16:15;;;;;;;7.78;5.80;;;19.80;99.90;;;;;;5052309;28;20041;-68
2022/08/12 06:18:41;;;;;;;9.60;6.07;;;19.80;99.90;;;;;;5053024;28;20139;-68
2022/08/12 06:21:08;;;;;;;7.70;5.72;;;19.80;99.90;;;;;;5035124;28;20120;-68
2022/08/12 06:23:34;;;;;;;10.63;5.55;;;19.70;99.90;;;;;;5053050;28;20115;-68
2022/08/12 06:26:00;;;;;;;11.27;5.78;;;19.80;99.90;;;;;;5055394;28;20596;-67
2022/08/12 06:28:29;;;;;;;9.88;5.68;;;19.80;99.90;;;;;;5066935;28;20036;-67
2022/08/12 06:30:55;;;;;;;8.27;5.65;;;19.90;99.90;;;;;;5075960;28;20043;-68
2022/08/12 06:33:21;;;;;;;7.53;5.05;;;20.00;99.90;;;;;;5075573;28;20123;-68
2022/08/12 06:35:48;;;;;;;7.00;4.90;;;19.90;99.90;;;;;;5075147;28;20071;-67
2022/08/12 06:38:19;;;;;;;9.90;5.22;;;20.00;99.90;;;;;;5072929;28;20044;-67
2022/08/12 06:43:31;;;;;;;7.43;5.35;;;20.20;99.90;;;;;;5072584;28;20041;-68
2022/08/12 06:45:56;;;;;;;6.95;5.63;;;20.30;99.90;;;;;;5073896;28;20041;-68
2022/08/12 06:48:27;;;;;;;10.57;5.65;;;20.40;99.90;;;;;;5074063;28;20610;-67
2022/08/12 06:50:54;;;;;;;7.78;4.82;;;20.50;99.90;;;;;;5073039;28;20067;-68
2022/08/12 06:53:21;;;;;;;9.73;4.85;;;20.60;99.90;;;;;;5073597;28;20048;-67
2022/08/12 06:55:46;;;;;;;13.23;4.55;;;20.80;99.90;;;;;;5072976;28;20044;-67
2022/08/12 06:58:13;;;;;;;6.70;5.20;;;20.90;99.90;;;;;;5072479;28;20055;-67
2022/08/12 07:00:39;;;;;;;6.43;3.92;;;21.10;99.90;;;;;;5072458;28;20036;-67
2022/08/12 07:03:05;;;;;;;8.00;4.63;;;21.30;99.90;;;;;;5072244;28;20088;-67
2022/08/12 07:05:31;;;;;;;9.05;5.13;;;21.30;99.90;;;;;;5072371;28;20432;-67
2022/08/12 07:08:00;;;;;;;9.18;4.80;;;21.40;99.90;;;;;;5070765;28;20076;-68
2022/08/12 07:10:26;;;;;;;7.07;4.40;;;21.30;99.90;;;;;;5072166;28;20405;-68
2022/08/12 07:12:55;;;;;;;17.80;5.45;;;21.50;99.90;;;;;;5072144;28;20098;-67
2022/08/12 07:15:24;;;;;;;11.30;4.78;;;21.50;99.90;;;;;;5071400;28;20090;-67
2022/08/12 07:17:58;;;;;;;8.25;4.00;;;21.50;99.90;;;;;;5072373;28;20036;-67
2022/08/12 07:20:28;;;;;;;8.80;4.45;;;21.60;99.90;;;;;;5072138;28;20101;-67
2022/08/12 07:22:54;;;;;;;8.48;4.47;;;21.70;99.90;;;;;;5070731;28;20063;-68
2022/08/12 07:25:33;;;;;;;11.60;4.25;;;21.90;99.90;;;;;;5071006;28;20036;-68
2022/08/12 07:28:03;;;;;;;7.53;4.30;;;22.00;99.90;;;;;;5080386;28;20076;-71
2022/08/12 07:30:33;;;;;;;8.57;4.50;;;22.00;99.90;;;;;;5077784;28;20044;-71
2022/08/12 07:33:01;;;;;;;12.05;4.20;;;22.10;99.90;;;;;;5071065;28;20043;-71
2022/08/12 07:35:28;;;;;;;8.82;4.80;;;22.20;99.90;;;;;;5070851;28;20032;-71
2022/08/12 07:37:56;;;;;;;9.68;5.03;;;22.30;99.90;;;;;;5070947;28;20044;-71
2022/08/12 07:40:23;;;;;;;7.20;4.43;;;22.50;99.90;;;;;;5071020;28;20047;-71
2022/08/12 07:42:49;;;;;;;9.05;4.47;;;22.40;99.90;;;;;;5070514;28;20036;-71
2022/08/12 07:45:16;;;;;;;8.48;5.05;;;22.50;99.90;;;;;;5070553;28;20032;-71
2022/08/12 07:47:42;;;;;;;12.73;4.50;;;22.60;99.90;;;;;;5070745;28;20125;-71
2022/08/12 07:50:12;;;;;;;9.27;4.22;;;22.70;99.90;;;;;;5070578;28;20638;-70
2022/08/12 07:52:41;;;;;;;11.13;4.50;;;22.70;99.90;;;;;;5070415;28;20044;-70
2022/08/12 07:55:07;;;;;;;8.23;4.38;;;22.80;99.90;;;;;;5070688;28;20406;-71
2022/08/12 07:57:34;;;;;;;6.68;4.20;;;22.80;99.90;;;;;;5070351;28;20409;-71
2022/08/12 08:00:04;;;;;;;6.47;3.63;;;22.90;99.90;;;;;;5070349;28;20041;-72
2022/08/12 08:02:34;;;;;;;9.48;3.97;;;23.00;99.90;;;;;;5070056;28;20043;-71
2022/08/12 08:05:00;;;;;;;5.70;4.05;;;23.20;99.90;;;;;;5070453;28;20103;-70
2022/08/12 08:07:28;;;;;;;5.43;4.00;;;23.30;99.90;;;;;;5070539;28;20070;-71
2022/08/12 08:09:57;;;;;;;5.35;3.63;;;23.30;99.90;;;;;;5068838;28;20407;-70
2022/08/12 08:15:09;;;;;;;5.63;3.70;;;23.50;99.90;;;;;;5060166;28;20405;-71
2022/08/12 08:17:36;;;;;;;5.75;3.40;;;23.50;99.90;;;;;;5070103;28;20041;-71
2022/08/12 08:20:08;;;;;;;6.18;4.28;;;23.70;99.90;;;;;;5069679;28;20181;-71
2022/08/12 08:22:37;;;;;;;5.88;3.30;;;23.70;99.90;;;;;;5070011;28;20041;-71
2022/08/12 08:25:06;;;;;;;4.32;3.10;;;23.80;99.90;;;;;;5070013;28;20119;-71
2022/08/12 08:27:45;;;;;;;6.00;2.97;;;23.90;99.90;;;;;;5070111;28;20094;-71
2022/08/12 08:30:15;;;;;;;10.18;4.18;;;24.10;99.90;;;;;;5070090;28;20496;-70
2022/08/12 08:32:40;;;;;;;6.97;3.30;;;24.00;99.90;;;;;;5069973;28;20036;-71
2022/08/12 08:35:09;;;;;;;7.18;3.50;;;24.10;99.90;;;;;;5074461;28;20032;-71
2022/08/12 08:37:35;;;;;;;10.90;3.67;;;24.30;99.90;;;;;;5085561;28;20067;-71
2022/08/12 08:42:35;;;;;;;4.97;3.60;;;24.40;99.90;;;;;;5073340;28;20049;-71
2022/08/12 08:42:46;;;;;;;9.95;3.10;;;24.60;99.90;;;;;;5068729;28;20068;-72
2022/08/12 08:45:12;;;;;;;9.57;3.38;;;24.60;99.90;;;;;;5069793;28;20139;-70
2022/08/12 08:47:45;;;;;;;7.32;3.30;;;24.80;99.90;;;;;;5068525;28;20116;-71
2022/08/12 08:50:13;;;;;;;9.93;3.63;;;24.80;99.90;;;;;;5069766;28;20097;-71
2022/08/12 08:52:43;;;;;;;7.47;3.60;;;24.80;99.90;;;;;;5069983;28;20409;-71
2022/08/12 08:55:13;;;;;;;4.47;2.97;;;24.90;99.90;;;;;;5068408;28;20106;-71
2022/08/12 08:57:39;;;;;;;8.40;3.55;;;25.00;99.90;;;;;;5069742;28;20041;-71
2022/08/12 09:00:06;;;;;;;8.93;3.55;;;25.10;99.90;;;;;;5069544;28;20055;-71
2022/08/12 09:02:32;;;;;;;3.97;3.33;;;25.20;99.90;;;;;;5069224;28;20119;-71
2022/08/12 09:04:58;;;;;;;7.55;3.00;;;25.30;99.40;;;;;;5069222;28;20048;-71
2022/08/12 09:07:26;;;;;;;6.53;3.10;;;25.60;99.90;;;;;;5058156;28;20041;-71
2022/08/12 09:09:53;;;;;;;8.57;3.50;;;25.50;99.80;;;;;;5059115;28;20369;-72
2022/08/12 09:15:03;;;;;;;6.50;2.78;;;25.60;99.30;;;;;;5049647;28;20171;-71
2022/08/12 09:17:32;;;;;;;6.65;3.35;;;25.70;99.00;;;;;;5059304;28;20509;-71
2022/08/12 09:19:58;;;;;;;3.95;3.13;;;25.70;98.70;;;;;;5069608;28;20041;-72
2022/08/12 09:22:23;;;;;;;11.05;2.97;;;25.80;98.90;;;;;;5067835;28;20408;-71
2022/08/12 09:24:51;;;;;;;8.02;3.28;;;25.90;98.40;;;;;;5069541;28;20358;-71
2022/08/12 09:27:17;;;;;;;7.72;2.90;;;26.10;97.50;;;;;;5069378;28;20127;-71
2022/08/12 09:29:44;;;;;;;9.85;3.00;;;26.20;97.00;;;;;;5065086;28;20115;-71
2022/08/12 09:32:09;;;;;;;5.07;3.03;;;26.30;96.30;;;;;;5069755;28;20043;-71
2022/08/12 09:34:35;;;;;;;10.50;3.15;;;26.20;97.30;;;;;;5074326;28;20032;-73
2022/08/12 09:37:01;;;;;;;4.72;2.70;;;26.20;97.40;;;;;;5074802;28;20462;-74
2022/08/12 09:39:31;;;;;;;5.18;2.75;;;26.50;97.40;;;;;;5075939;28;20032;-74
2022/08/12 09:47:28;;;;;;;11.60;3.10;;;26.90;95.50;;;;;;5081586;28;20424;-74
2022/08/12 09:49:54;;;;;;;5.00;2.72;;;26.90;95.80;;;;;;5073537;28;20507;-72
2022/08/12 09:52:21;;;;;;;9.38;2.70;;;26.80;95.70;;;;;;5072984;28;20060;-72
2022/08/12 09:54:46;;;;;;;5.60;2.72;;;26.80;95.60;;;;;;5073104;28;20047;-73
2022/08/12 09:57:21;;;;;;;8.30;3.15;;;27.00;95.10;;;;;;5073160;28;20050;-72
2022/08/12 09:59:47;;;;;;;4.38;2.92;;;27.10;94.40;;;;;;5072836;28;20037;-72
2022/08/12 10:02:13;;;;;;;5.65;2.75;;;27.20;94.20;;;;;;5072692;28;20071;-73
2022/08/12 10:04:47;;;;;;;11.20;2.97;;;27.20;94.10;;;;;;5072463;28;20040;-72
2022/08/12 10:07:16;;;;;;;12.20;2.92;;;27.30;93.70;;;;;;5054635;28;20489;-72
2022/08/12 10:09:42;;;;;;;4.50;2.78;;;27.50;93.10;;;;;;5071433;28;20090;-72
2022/08/12 10:14:51;;;;;;;7.70;2.72;;;27.40;92.60;;;;;;5072155;28;20044;-73
2022/08/12 10:17:21;;;;;;;6.68;2.60;;;27.50;92.20;;;;;;5073959;28;20036;-72
2022/08/12 10:19:47;;;;;;;5.55;2.50;;;27.50;91.30;;;;;;5068895;28;20033;-72
2022/08/12 10:22:14;;;;;;;6.55;2.95;;;27.60;91.00;;;;;;5071787;28;20036;-73
2022/08/12 10:24:40;;;;;;;7.38;2.60;;;27.70;91.10;;;;;;5072930;28;20041;-73
2022/08/12 10:29:51;;;;;;;8.00;2.63;;;27.60;90.90;;;;;;5072729;28;20048;-73
2022/08/12 10:32:20;;;;;;;9.07;2.65;;;27.60;91.10;;;;;;5072108;28;20045;-73
2022/08/12 10:34:46;;;;;;;9.75;2.75;;;28.00;90.80;;;;;;5072249;28;20043;-72
2022/08/12 10:37:13;;;;;;;5.75;2.50;;;28.00;88.20;;;;;;5070621;28;20050;-74
2022/08/12 10:39:39;;;;;;;6.22;2.72;;;28.10;89.00;;;;;;5072614;28;20119;-73
2022/08/12 10:44:59;;;;;;;5.05;2.28;;;28.00;87.00;;;;;;5061435;28;20080;-73
2022/08/12 10:47:29;;;;;;;9.15;2.55;;;28.00;87.40;;;;;;5060666;28;20375;-73
2022/08/12 10:49:56;;;;;;;6.63;2.70;;;28.00;87.30;;;;;;5061649;28;20036;-72
2022/08/12 10:52:23;;;;;;;10.25;2.50;;;28.10;87.20;;;;;;5073376;28;20041;-73
2022/08/12 10:54:49;;;;;;;9.23;3.00;;;28.10;86.70;;;;;;5081547;28;20067;-73
2022/08/12 10:57:16;;;;;;;9.73;2.80;;;28.20;87.10;;;;;;5063804;28;20033;-73
2022/08/12 10:59:42;;;;;;;5.78;2.60;;;28.20;86.10;;;;;;5062621;28;20044;-73
2022/08/12 11:02:12;;;;;;;8.23;2.83;;;28.10;85.50;;;;;;5060825;28;20068;-73
2022/08/12 11:04:39;;;;;;;7.60;2.70;;;28.20;84.20;;;;;;5060709;28;20115;-73
2022/08/12 11:25:30;;;;;;;3.97;2.33;;;28.80;78.20;;;;;;5059353;28;20111;-71
2022/08/12 11:27:56;;;;;;;7.65;1.90;;;29.00;77.90;;;;;;5061172;28;20102;-71
2022/08/12 11:30:21;;;;;;;4.07;1.75;;;29.20;76.80;;;;;;5058260;28;20037;-71
2022/08/12 11:32:47;;;;;;;5.93;2.38;;;29.10;77.50;;;;;;5057783;28;20048;-70
2022/08/12 11:35:13;;;;;;;5.40;1.90;;;29.40;76.90;;;;;;5058590;28;20033;-71
2022/08/12 11:37:39;;;;;;;3.17;1.92;;;29.10;76.30;;;;;;5056963;28;20116;-71
2022/08/12 11:40:06;;;;;;;2.53;1.77;;;29.10;76.20;;;;;;5057542;28;20036;-71
2022/08/12 11:42:32;;;;;;;8.63;2.22;;;29.40;74.10;;;;;;5057719;28;20051;-71
2022/08/12 11:44:57;;;;;;;5.47;1.95;;;29.50;73.40;;;;;;5057319;28;20068;-71
2022/08/12 11:47:23;;;;;;;5.13;2.13;;;29.50;73.40;;;;;;5057892;28;20044;-71
2022/08/12 11:49:50;;;;;;;5.68;2.03;;;29.50;72.60;;;;;;5057266;28;20442;-70
2022/08/12 11:52:16;;;;;;;3.53;2.03;;;29.40;73.30;;;;;;5057884;28;20076;-71
2022/08/12 11:54:41;;;;;;;4.97;2.25;;;29.40;71.30;;;;;;5060856;28;20144;-71
2022/08/12 11:57:07;;;;;;;4.32;2.17;;;29.50;72.20;;;;;;5060756;28;20472;-71
2022/08/12 11:59:32;;;;;;;6.20;2.30;;;29.60;72.50;;;;;;5060660;28;20105;-70
2022/08/12 12:01:58;;;;;;;3.13;2.10;;;29.50;69.50;;;;;;5071743;28;20041;-70
2022/08/12 12:04:24;;;;;;;4.35;2.10;;;29.50;71.60;;;;;;5070277;28;20041;-70
2022/08/12 12:06:49;;;;;;;5.00;2.47;;;29.50;71.60;;;;;;5058281;28;20107;-70
2022/08/12 12:09:15;;;;;;;3.55;2.05;;;29.60;71.70;;;;;;5059258;28;20044;-70
2022/08/12 12:11:42;;;;;;;8.43;2.50;;;29.60;69.90;;;;;;5060639;28;20044;-70
2022/08/12 12:14:08;;;;;;;6.88;2.50;;;29.70;71.30;;;;;;5058670;28;20455;-71
2022/08/12 12:16:34;;;;;;;7.40;2.67;;;29.60;70.30;;;;;;5042868;28;20045;-71
2022/08/12 12:19:00;;;;;;;6.85;2.25;;;29.60;70.10;;;;;;5060575;28;20543;-70
2022/08/12 12:21:26;;;;;;;6.18;2.35;;;29.70;69.50;;;;;;5060255;28;20033;-71
2022/08/12 12:23:53;;;;;;;7.18;2.30;;;29.70;70.20;;;;;;5060079;28;20047;-71
2022/08/12 12:26:19;;;;;;;7.45;2.10;;;29.70;70.00;;;;;;5060819;28;20052;-70
2022/08/12 12:28:45;;;;;;;3.63;2.25;;;29.80;71.30;;;;;;5060268;28;20485;-70
2022/08/12 12:31:11;;;;;;;5.60;2.53;;;29.80;71.50;;;;;;5068003;28;20037;-71
2022/08/12 12:33:36;;;;;;;5.78;2.28;;;29.70;68.50;;;;;;5068999;28;20106;-70
2022/08/12 12:36:02;;;;;;;4.65;2.20;;;29.80;68.10;;;;;;5070477;28;20032;-70
2022/08/12 12:38:28;;;;;;;4.45;2.53;;;29.80;68.10;;;;;;5068023;28;20104;-70
2022/08/12 12:40:53;;;;;;;4.88;2.40;;;29.80;67.40;;;;;;5067948;28;20073;-70
2022/08/12 12:43:19;;;;;;;7.97;2.50;;;29.80;67.90;;;;;;5067075;28;20040;-70
2022/08/12 12:45:45;;;;;;;6.28;2.30;;;29.90;67.80;;;;;;5076605;28;20143;-70
2022/08/12 12:48:11;;;;;;;5.63;2.78;;;29.70;67.80;;;;;;5069307;28;20059;-70
2022/08/12 12:50:39;;;;;;;5.05;2.67;;;29.80;69.30;;;;;;5053203;28;20109;-69
2022/08/12 12:53:05;;;;;;;5.68;2.47;;;29.90;69.50;;;;;;5067826;28;20094;-68
2022/08/12 12:55:34;;;;;;;3.40;2.63;;;30.00;69.00;;;;;;5068936;28;20530;-68
2022/08/12 12:58:11;;;;;;;4.22;2.33;;;29.90;67.50;;;;;;5078253;28;20048;-68
2022/08/12 13:00:43;;;;;;;10.98;2.90;;;29.90;67.20;;;;;;5080705;28;20041;-68
2022/08/12 13:03:10;;;;;;;5.95;2.40;;;29.90;68.50;;;;;;5078666;28;20044;-68
2022/08/12 13:05:35;;;;;;;4.63;2.40;;;30.00;66.90;;;;;;5082836;28;20044;-68
2022/08/12 13:08:03;;;;;;;6.10;2.83;;;30.10;67.10;;;;;;5083416;28;20049;-68
2022/08/12 13:10:30;;;;;;;7.25;2.90;;;30.10;67.00;;;;;;5080979;28;20077;-68
2022/08/12 13:12:56;;;;;;;4.07;3.00;;;30.10;67.70;;;;;;5079340;28;20062;-69
2022/08/12 13:15:21;;;;;;;4.32;3.00;;;30.20;66.90;;;;;;5053270;28;20036;-69
2022/08/12 13:17:55;;;;;;;11.23;2.65;;;30.10;66.30;;;;;;5066204;28;20044;-68
2022/08/12 13:20:21;;;;;;;4.88;2.60;;;30.30;67.30;;;;;;5063675;28;20470;-67
2022/08/12 13:22:48;;;;;;;3.85;2.70;;;30.30;67.10;;;;;;5060802;28;20111;-67
2022/08/12 13:25:14;;;;;;;6.03;3.55;;;30.50;67.00;;;;;;5061090;28;20409;-67
2022/08/12 13:27:44;;;;;;;7.68;3.08;;;30.20;66.10;;;;;;5061740;28;20235;-67
2022/08/12 13:30:19;;;;;;;9.98;3.40;;;30.20;65.10;;;;;;5061216;28;20114;-67
2022/08/12 13:32:50;;;;;;;5.60;3.17;;;30.40;65.40;;;;;;5061245;28;20544;-68
2022/08/12 13:35:16;;;;;;;10.70;2.95;;;30.10;63.90;;;;;;5061970;28;20043;-67
2022/08/12 13:37:56;;;;;;;8.07;3.38;;;30.10;65.10;;;;;;5061479;28;20029;-67
2022/08/12 13:40:23;;;;;;;7.88;2.70;;;30.30;65.60;;;;;;5060923;28;20082;-68
2022/08/12 13:42:51;;;;;;;6.45;3.08;;;30.20;65.20;;;;;;5059542;28;20382;-68
2022/08/12 13:45:17;;;;;;;9.13;2.65;;;30.30;65.40;;;;;;5061659;28;20142;-68
2022/08/12 13:48:00;;;;;;;3.78;2.53;;;30.40;65.60;;;;;;5061560;28;20220;-68
2022/08/12 13:50:42;;;;;;;7.60;2.90;;;30.50;66.70;;;;;;5043443;28;20473;-68
2022/08/12 13:53:09;;;;;;;;;;;30.70;65.60;;;;;;5062417;28;20120;-68
2022/08/12 13:55:36;;;;;;;6.80;3.08;;;30.60;65.80;;;;;;5060912;28;19917;-68
2022/08/12 13:58:04;;;;;;;8.75;3.55;;;30.70;64.30;;;;;;5061524;28;20091;-68
2022/08/12 14:00:31;;;;;;;6.82;3.33;;;30.50;64.80;;;;;;5060726;28;20072;-68
2022/08/12 14:02:57;;;;;;;7.43;3.05;;;30.40;63.90;;;;;;5059424;28;20037;-67
2022/08/12 14:05:22;;;;;;;5.63;3.17;;;30.40;64.50;;;;;;5060813;28;20033;-68
2022/08/12 14:07:59;;;;;;;8.07;3.13;;;30.50;64.20;;;;;;5060817;28;20148;-68
2022/08/12 14:10:42;;;;;;;5.38;2.72;;;30.50;65.00;;;;;;5060991;28;20118;-68
2022/08/12 14:13:09;;;;;;;12.80;4.45;;;30.50;63.40;;;;;;5059780;28;20051;-68
2022/08/12 14:15:42;;;;;;;5.00;2.92;;;30.50;64.00;;;;;;5060254;28;20420;-68
2022/08/12 14:18:14;;;;;;;5.10;2.75;;;30.50;64.30;;;;;;5069476;28;20067;-68
2022/08/12 14:20:41;;;;;;;5.45;2.47;;;30.50;63.20;;;;;;5065201;28;20044;-68
2022/08/12 14:23:08;;;;;;;12.15;2.97;;;30.50;64.40;;;;;;5043825;28;20045;-68
2022/08/12 14:25:33;;;;;;;6.00;2.60;;;30.60;64.20;;;;;;5060436;28;20040;-68
2022/08/12 14:28:15;;;;;;;9.88;3.25;;;30.40;63.10;;;;;;5060532;28;20532;-68
2022/08/12 14:30:57;;;;;;;5.38;2.80;;;30.50;62.70;;;;;;5060662;28;20041;-68
2022/08/12 14:33:24;;;;;;;4.10;2.90;;;30.40;62.30;;;;;;5069105;28;20090;-68
2022/08/12 14:35:51;;;;;;;7.55;2.80;;;30.40;63.00;;;;;;5078128;28;20036;-68
2022/08/12 14:38:24;;;;;;;5.68;2.55;;;30.50;63.40;;;;;;5078466;28;20044;-68
2022/08/12 14:40:56;;;;;;;12.57;3.00;;;30.40;63.10;;;;;;5080502;28;20064;-68
2022/08/12 14:43:24;;;;;;;8.75;2.58;;;30.50;63.10;;;;;;5078765;28;20045;-67
2022/08/12 14:45:49;;;;;;;5.70;2.40;;;30.50;63.30;;;;;;5075685;28;20108;-68
2022/08/12 14:48:17;;;;;;;4.22;2.70;;;30.50;62.70;;;;;;5078776;28;20068;-68
2022/08/12 14:50:45;;;;;;;3.97;2.53;;;30.70;62.80;;;;;;5079238;28;20730;-68
2022/08/12 14:53:13;;;;;;;6.95;2.53;;;30.70;63.60;;;;;;5080449;28;20037;-68
2022/08/12 14:55:40;;;;;;;7.30;2.55;;;30.60;61.80;;;;;;5062238;28;20094;-68